Time;durP1;ratioP1;P1;durP2;ratioP2;P2;SDS_P1;SDS_P2;PMS_P1;PMS_P2;Temp;Humidity;BMP_temperature;BMP_pressure;BME280_temperature;BME280_humidity;BME280_pressure;Samples;Min_cycle;Max_cycle;Signal;HPM_P1;HPM_P2
2020/12/30 05:51:20;;;;;;;13.33;7.00;;;;;;;0.67;100.00;98158.88;1729639;79;21212;31
2020/12/30 05:53:49;;;;;;;12.87;5.90;;;;;;;0.69;100.00;98166.84;1646315;85;21183;-50
2020/12/30 05:56:19;;;;;;;13.73;6.50;;;;;;;0.77;100.00;98168.12;1578918;87;21215;-50
2020/12/30 05:58:49;;;;;;;11.70;6.20;;;;;;;0.77;100.00;98169.42;1594162;86;21221;-57
2020/12/30 06:01:27;;;;;;;11.17;5.93;;;;;;;0.76;100.00;98170.41;1652112;85;21153;-54
2020/12/30 06:03:57;;;;;;;10.63;6.03;;;;;;;0.77;100.00;98173.31;1651369;85;21325;-55
2020/12/30 06:06:28;;;;;;;12.23;6.43;;;;;;;0.79;100.00;98172.66;1660416;85;21194;-53
2020/12/30 06:08:59;;;;;;;12.77;6.93;;;;;;;0.83;100.00;98171.05;1679140;85;21316;-55
2020/12/30 06:11:29;;;;;;;16.50;7.43;;;;;;;0.85;100.00;98171.20;1679101;85;21318;-51
2020/12/30 06:13:59;;;;;;;21.03;6.50;;;;;;;0.86;100.00;98165.52;1671496;84;21174;-57
2020/12/30 06:16:30;;;;;;;13.10;7.20;;;;;;;0.91;100.00;98169.73;1670603;84;21141;-55
2020/12/30 06:18:59;;;;;;;12.03;6.17;;;;;;;0.91;100.00;98169.73;1654196;85;21912;-55
2020/12/30 06:21:29;;;;;;;9.37;5.60;;;;;;;0.90;100.00;98162.94;1637589;85;21165;-61
2020/12/30 06:24:00;;;;;;;14.47;6.27;;;;;;;0.89;100.00;98175.09;1656175;85;21592;-52
2020/12/30 06:26:30;;;;;;;12.68;6.30;;;;;;;0.90;100.00;98170.23;1664873;84;21197;-49
2020/12/30 06:28:59;;;;;;;14.87;7.03;;;;;;;0.93;100.00;98178.19;1655122;85;21308;-53
2020/12/30 06:31:28;;;;;;;14.47;6.90;;;;;;;0.97;100.00;98174.28;1667351;84;21769;-48
2020/12/30 06:33:58;;;;;;;13.90;7.43;;;;;;;0.98;100.00;98173.33;1659415;85;21187;-47
2020/12/30 06:36:27;;;;;;;12.43;6.87;;;;;;;1.01;100.00;98168.60;1679397;85;21610;-52
2020/12/30 06:38:57;;;;;;;16.00;7.67;;;;;;;1.06;100.00;98171.52;1678983;85;21182;-50
2020/12/30 06:41:28;;;;;;;14.03;7.07;;;;;;;1.12;100.00;98162.76;1679007;85;21142;-52
2020/12/30 06:43:57;;;;;;;15.45;7.60;;;;;;;1.18;100.00;98171.99;1676966;84;21568;-49
2020/12/30 06:46:32;;;;;;;15.60;6.83;;;;;;;1.19;100.00;98167.12;1661843;84;21200;-50
2020/12/30 06:49:04;;;;;;;14.87;6.70;;;;;;;1.20;100.00;98171.81;1667479;85;21129;-47
2020/12/30 06:51:45;;;;;;;;;;;;;;;1.19;100.00;98168.91;1661642;85;21191;-47
2020/12/30 06:54:11;;;;;;;14.73;7.30;;;;;;;1.18;100.00;98168.09;1630109;86;20182;-47
2020/12/30 06:56:41;;;;;;;12.63;6.80;;;;;;;1.17;100.00;98163.89;1653162;86;21646;-49
2020/12/30 06:59:29;;;;;;;16.87;7.42;;;;;;;1.19;100.00;98160.62;1638861;86;21917;-45
2020/12/30 07:02:02;;;;;;;15.60;7.43;;;;;;;1.22;100.00;98168.59;1624310;88;21771;-50
2020/12/30 07:04:32;;;;;;;16.63;7.67;;;;;;;1.22;100.00;98165.99;1624259;86;21237;-46
2020/12/30 07:07:20;;;;;;;14.07;6.93;;;;;;;1.26;100.00;98171.16;1609548;88;21234;-50
2020/12/30 07:09:49;;;;;;;13.83;6.10;;;;;;;1.31;100.00;98174.88;1639912;86;21417;-47
2020/12/30 07:12:20;;;;;;;10.70;5.70;;;;;;;1.35;100.00;98175.86;1643040;86;21235;-48
2020/12/30 07:14:49;;;;;;;16.63;6.33;;;;;;;1.36;100.00;98176.98;1631988;87;21209;-50
2020/12/30 07:20:40;;;;;;;20.53;6.27;;;;;;;1.40;100.00;98174.88;1710638;83;21174;-52
2020/12/30 07:23:11;;;;;;;11.27;6.67;;;;;;;1.38;100.00;98177.66;1720816;83;21158;-50
2020/12/30 07:25:48;;;;;;;12.33;6.83;;;;;;;1.40;100.00;98182.19;1725670;82;21189;-55
2020/12/30 07:28:18;;;;;;;22.10;9.20;;;;;;;1.41;100.00;98185.09;1721498;83;21178;-53
2020/12/30 07:30:47;;;;;;;15.33;7.70;;;;;;;1.48;100.00;98167.05;1716506;82;21300;-51
2020/12/30 07:33:17;;;;;;;15.50;7.10;;;;;;;1.57;100.00;98168.67;1722401;82;21160;-55
2020/12/30 07:35:46;;;;;;;15.07;7.00;;;;;;;1.68;100.00;98170.10;1721013;82;21215;-56
2020/12/30 07:38:16;;;;;;;16.73;8.77;;;;;;;1.72;100.00;98158.37;1716465;83;21280;-50
2020/12/30 07:40:47;;;;;;;16.20;7.53;;;;;;;1.72;100.00;98154.02;1691022;84;21200;-53
2020/12/30 07:43:18;;;;;;;15.05;7.30;;;;;;;1.77;100.00;98152.98;1638571;85;21361;-54
2020/12/30 07:45:49;;;;;;;13.93;6.57;;;;;;;1.83;100.00;98156.21;1677694;83;21178;-54
2020/12/30 07:48:22;;;;;;;15.10;8.05;;;;;;;1.91;100.00;98157.98;1677751;84;21202;-56
2020/12/30 07:50:52;;;;;;;20.63;7.93;;;;;;;1.87;100.00;98148.90;1650295;85;21629;-53
2020/12/30 07:53:21;;;;;;;15.83;7.93;;;;;;;1.86;100.00;98161.09;1663425;83;21642;-52
2020/12/30 07:55:51;;;;;;;18.43;7.37;;;;;;;1.84;100.00;98159.16;1665193;85;21236;-52
2020/12/30 07:58:21;;;;;;;14.93;7.63;;;;;;;1.81;100.00;98141.78;1684795;84;21180;-51
2020/12/30 08:00:52;;;;;;;11.07;6.80;;;;;;;1.84;100.00;98144.86;1724326;82;21172;-51
2020/12/30 08:03:23;;;;;;;16.70;8.40;;;;;;;1.83;100.00;98136.72;1703847;83;21801;-54
2020/12/30 08:05:57;;;;;;;20.10;8.27;;;;;;;1.78;100.00;98134.34;1703706;83;21200;-51
2020/12/30 08:08:27;;;;;;;16.60;8.37;;;;;;;1.76;100.00;98134.98;1723832;83;21165;-50
2020/12/30 08:11:02;;;;;;;14.28;8.13;;;;;;;1.72;100.00;98128.48;1701859;83;21153;-52
2020/12/30 08:13:35;;;;;;;16.90;8.60;;;;;;;1.65;100.00;98133.55;1724166;83;21164;-54
2020/12/30 08:16:05;;;;;;;18.20;8.67;;;;;;;1.64;100.00;98135.84;1715472;82;21163;-54
2020/12/30 08:18:35;;;;;;;16.50;9.38;;;;;;;1.66;100.00;98143.45;1718512;82;21249;-52
2020/12/30 08:21:13;;;;;;;13.90;7.50;;;;;;;1.69;100.00;98142.64;1701080;84;21341;-49
2020/12/30 08:23:42;;;;;;;16.20;7.17;;;;;;;1.77;100.00;98130.09;1697112;84;21140;-61
2020/12/30 08:26:11;;;;;;;23.03;10.63;;;;;;;1.76;100.00;98126.69;1702755;84;21149;-56
2020/12/30 08:28:41;;;;;;;16.23;7.97;;;;;;;1.76;100.00;98127.98;1702968;83;21212;-56
2020/12/30 08:31:15;;;;;;;17.07;8.10;;;;;;;1.75;100.00;98122.48;1703001;83;22244;-52
2020/12/30 08:33:44;;;;;;;14.77;7.53;;;;;;;1.70;100.00;98129.16;1703264;83;21175;-47
2020/12/30 08:36:18;;;;;;;17.77;8.30;;;;;;;1.65;100.00;98123.16;1702633;83;21384;-48
2020/12/30 08:38:50;;;;;;;15.53;7.90;;;;;;;1.63;100.00;98112.63;1702893;83;21192;-53
2020/12/30 08:41:21;;;;;;;19.10;9.20;;;;;;;1.69;100.00;98093.77;1708100;83;21184;-51
2020/12/30 08:43:56;;;;;;;24.90;9.20;;;;;;;1.80;100.00;98090.79;1701774;83;21351;-47
2020/12/30 08:46:26;;;;;;;18.80;9.40;;;;;;;1.89;100.00;98090.23;1702581;83;21189;-59
2020/12/30 08:48:56;;;;;;;18.80;9.03;;;;;;;1.97;100.00;98100.61;1708448;83;21581;-61
2020/12/30 08:51:31;;;;;;;16.23;7.77;;;;;;;1.94;100.00;98103.53;1651098;85;21638;-51
2020/12/30 08:54:01;;;;;;;13.63;7.53;;;;;;;1.88;100.00;98097.73;1679418;85;21268;-51
2020/12/30 08:56:32;;;;;;;16.82;7.37;;;;;;;1.90;100.00;98103.09;1679113;85;21638;-55
2020/12/30 08:59:01;;;;;;;13.67;7.07;;;;;;;1.96;100.00;98102.41;1674453;84;21330;-50
2020/12/30 09:01:31;;;;;;;12.77;7.53;;;;;;;2.04;100.00;98109.34;1710923;84;21627;-48
2020/12/30 09:04:11;;;;;;;15.55;6.80;;;;;;;2.15;100.00;98105.05;1719532;82;21214;-55
2020/12/30 09:06:40;;;;;;;13.30;7.20;;;;;;;2.27;100.00;98110.66;1683756;84;21163;-57
2020/12/30 09:09:14;;;;;;;14.70;6.90;;;;;;;2.31;100.00;98112.74;1683189;85;21211;-58
2020/12/30 09:11:48;;;;;;;11.33;6.30;;;;;;;2.37;100.00;98104.73;1710664;84;21134;-56
2020/12/30 09:14:20;;;;;;;17.50;7.80;;;;;;;2.41;100.00;98119.03;1727810;82;21320;-57
2020/12/30 09:17:11;;;;;;;18.20;8.13;;;;;;;2.50;100.00;98108.05;1700834;84;21212;-50
2020/12/30 09:19:38;;;;;;;20.60;8.90;;;;;;;2.58;100.00;98108.81;1667978;82;21833;-51
2020/12/30 09:22:08;;;;;;;21.33;9.53;;;;;;;2.60;100.00;98100.83;1713921;81;22196;-50
2020/12/30 09:24:42;;;;;;;17.05;7.33;;;;;;;2.65;100.00;98099.31;1695462;83;21162;-55
2020/12/30 09:27:23;;;;;;;14.87;8.17;;;;;;;2.73;100.00;98097.13;1711589;84;21593;-56
2020/12/30 09:30:13;;;;;;;19.75;10.35;;;;;;;2.76;100.00;98104.59;1711893;82;21180;-54
2020/12/30 09:32:45;;;;;;;19.87;9.83;;;;;;;2.75;100.00;98102.95;1711687;84;21638;-54
2020/12/30 09:35:16;;;;;;;19.27;9.97;;;;;;;2.93;100.00;98116.98;1709656;82;21896;-53
2020/12/30 09:37:56;;;;;;;19.37;10.30;;;;;;;3.11;100.00;98107.03;1713710;84;21191;-53
2020/12/30 09:40:26;;;;;;;19.27;8.90;;;;;;;3.30;100.00;98110.09;1713300;84;21184;-58
2020/12/30 09:43:19;;;;;;;19.80;10.60;;;;;;;3.35;100.00;98099.94;1713287;84;21192;-48
2020/12/30 09:45:57;;;;;;;18.20;8.98;;;;;;;3.39;100.00;98104.62;1713316;84;21199;-54
2020/12/30 09:48:26;;;;;;;14.57;8.37;;;;;;;3.46;100.00;98106.00;1716313;83;21184;-51
2020/12/30 09:50:56;;;;;;;18.10;9.17;;;;;;;3.58;100.00;98106.36;1718468;83;21206;-51
2020/12/30 09:53:25;;;;;;;17.02;9.60;;;;;;;3.66;100.00;98088.80;1718548;83;21170;-55
2020/12/30 09:55:55;;;;;;;24.90;10.83;;;;;;;3.75;100.00;98075.19;1718385;83;21367;-50
2020/12/30 09:58:24;;;;;;;17.87;9.48;;;;;;;3.74;100.00;98073.58;1718590;83;21175;-50
2020/12/30 10:00:54;;;;;;;19.25;10.32;;;;;;;3.67;100.00;98058.33;1714629;83;21172;-57
2020/12/30 10:03:23;;;;;;;16.60;9.60;;;;;;;3.65;100.00;98048.59;1713371;84;21156;-63
2020/12/30 10:05:52;;;;;;;19.95;10.63;;;;;;;3.67;100.00;98052.66;1713057;84;21172;-58
2020/12/30 10:08:22;;;;;;;20.50;12.20;;;;;;;3.69;100.00;98060.28;1713237;84;21184;-55
2020/12/30 10:10:51;;;;;;;21.73;11.48;;;;;;;3.79;100.00;98047.77;1713125;82;21678;-46
2020/12/30 10:13:21;;;;;;;26.45;12.05;;;;;;;3.90;100.00;98038.62;1725493;82;21182;-55
2020/12/30 10:15:50;;;;;;;21.35;11.10;;;;;;;3.93;100.00;98038.27;1720101;82;21215;-57
2020/12/30 10:18:19;;;;;;;20.50;11.38;;;;;;;3.91;100.00;98039.77;1712794;82;21314;-43
2020/12/30 10:20:51;;;;;;;18.97;10.70;;;;;;;3.94;100.00;98043.80;1708001;82;21194;-58
2020/12/30 10:23:20;;;;;;;19.42;10.38;;;;;;;4.03;100.00;98039.28;1686978;82;21208;-57
2020/12/30 10:25:49;;;;;;;22.32;12.85;;;;;;;4.15;100.00;98028.66;1683810;85;21172;-60
2020/12/30 10:28:18;;;;;;;22.52;13.08;;;;;;;4.25;100.00;98020.03;1684585;85;21203;-60
2020/12/30 10:30:48;;;;;;;23.87;13.88;;;;;;;4.33;100.00;98006.84;1684790;85;21180;-59
2020/12/30 10:33:17;;;;;;;23.92;14.05;;;;;;;4.35;100.00;97999.62;1684865;84;21180;-58
2020/12/30 10:35:48;;;;;;;24.02;13.93;;;;;;;4.35;100.00;97987.88;1682760;84;21227;-55
2020/12/30 10:38:17;;;;;;;23.10;13.83;;;;;;;4.31;100.00;97990.58;1687509;84;21180;-56
2020/12/30 10:40:47;;;;;;;23.15;14.25;;;;;;;4.28;100.00;97991.44;1698082;83;21220;-66
2020/12/30 10:43:16;;;;;;;24.75;15.25;;;;;;;4.36;100.00;97987.38;1698098;84;21208;-60
2020/12/30 10:45:46;;;;;;;26.07;15.35;;;;;;;4.45;100.00;97985.76;1698443;84;21684;-58
2020/12/30 10:48:15;;;;;;;24.60;14.07;;;;;;;4.53;100.00;97987.44;1696248;83;21531;-55
2020/12/30 10:50:45;;;;;;;22.70;12.82;;;;;;;4.60;100.00;97984.38;1693844;84;21196;-56
2020/12/30 10:53:14;;;;;;;22.13;12.90;;;;;;;4.60;100.00;97997.42;1698188;84;21349;-52
2020/12/30 10:55:43;;;;;;;23.02;13.28;;;;;;;4.60;100.00;97996.62;1698611;84;21197;-58
2020/12/30 10:58:12;;;;;;;20.65;12.25;;;;;;;4.57;100.00;97999.09;1698122;84;21600;-57
2020/12/30 11:00:43;;;;;;;22.48;13.65;;;;;;;4.64;100.00;98000.44;1697280;84;21367;-55
2020/12/30 11:03:13;;;;;;;22.80;13.20;;;;;;;4.72;100.00;97998.50;1691665;83;21204;-59
2020/12/30 11:05:43;;;;;;;22.37;13.58;;;;;;;4.78;100.00;97990.41;1691075;83;21204;-58
2020/12/30 11:08:14;;;;;;;22.80;13.10;;;;;;;4.78;100.00;97974.74;1681734;83;21188;-56
2020/12/30 11:10:45;;;;;;;23.12;13.05;;;;;;;4.70;100.00;97977.02;1695294;83;21122;-59
2020/12/30 11:13:14;;;;;;;21.02;12.47;;;;;;;4.69;100.00;97966.23;1709833;83;21262;-58
2020/12/30 11:15:44;;;;;;;23.70;13.13;;;;;;;4.70;100.00;97968.34;1695907;83;21252;-59
2020/12/30 11:18:14;;;;;;;25.72;15.23;;;;;;;4.74;100.00;97956.03;1691312;84;21145;-57
2020/12/30 11:20:44;;;;;;;23.85;14.53;;;;;;;4.78;100.00;97955.16;1698909;84;21198;-58
2020/12/30 11:23:14;;;;;;;25.65;15.90;;;;;;;4.83;100.00;97951.97;1712493;84;21183;-55
2020/12/30 11:25:47;;;;;;;23.57;13.55;;;;;;;4.90;100.00;97956.22;1712765;83;21178;-61
2020/12/30 11:28:16;;;;;;;22.95;13.50;;;;;;;4.91;100.00;97959.13;1712588;84;21190;-53
2020/12/30 11:30:45;;;;;;;23.35;14.70;;;;;;;4.96;100.00;97955.45;1713064;84;21202;-56
2020/12/30 11:33:14;;;;;;;23.42;13.88;;;;;;;5.04;100.00;97953.97;1713226;84;21175;-53
2020/12/30 11:35:45;;;;;;;27.77;15.58;;;;;;;5.14;100.00;97944.98;1712447;82;21199;-57
2020/12/30 11:38:14;;;;;;;27.77;17.62;;;;;;;5.17;100.00;97935.45;1713024;84;21131;-56
2020/12/30 11:40:44;;;;;;;30.35;19.48;;;;;;;5.21;100.00;97943.19;1712635;84;21218;-55
2020/12/30 11:43:14;;;;;;;25.48;17.48;;;;;;;5.22;100.00;97939.09;1712582;84;21194;-57
2020/12/30 11:45:44;;;;;;;;;;;;;;;5.24;100.00;97933.16;1697192;84;21335;-56
2020/12/30 11:48:15;;;;;;;23.40;13.25;;;;;;;5.23;100.00;97922.91;1712534;83;20179;-59
2020/12/30 11:50:45;;;;;;;23.77;13.85;;;;;;;5.23;100.00;97924.22;1712689;83;21131;-57
2020/12/30 11:53:16;;;;;;;24.45;13.95;;;;;;;5.19;100.00;97924.30;1715080;83;21316;-57
2020/12/30 11:55:46;;;;;;;24.10;14.38;;;;;;;5.15;100.00;97916.03;1707168;82;21641;-58
2020/12/30 11:58:16;;;;;;;24.72;14.23;;;;;;;5.17;100.00;97921.09;1721225;81;21152;-57
2020/12/30 12:00:46;;;;;;;24.02;13.35;;;;;;;5.19;100.00;97915.16;1717053;83;21349;-57
2020/12/30 12:03:15;;;;;;;22.52;12.82;;;;;;;5.13;100.00;97918.05;1719955;82;21335;-59
2020/12/30 12:05:45;;;;;;;23.67;13.62;;;;;;;5.10;100.00;97922.84;1724481;83;21159;-58
2020/12/30 12:08:16;;;;;;;26.27;15.65;;;;;;;5.10;100.00;97922.84;1721387;83;21619;-58
2020/12/30 12:10:46;;;;;;;30.12;17.55;;;;;;;5.14;100.00;97913.63;1712158;82;21180;-59
2020/12/30 12:13:19;;;;;;;27.75;16.10;;;;;;;5.20;100.00;97912.84;1714693;83;21218;-58
2020/12/30 12:15:48;;;;;;;26.90;15.80;;;;;;;5.22;100.00;97913.47;1709161;83;21162;-60
2020/12/30 12:18:18;;;;;;;26.95;15.72;;;;;;;5.24;100.00;97919.30;1722014;82;21159;-57
2020/12/30 12:20:47;;;;;;;27.30;15.48;;;;;;;5.30;100.00;97914.59;1718736;81;21255;-57
2020/12/30 12:23:17;;;;;;;27.25;16.60;;;;;;;5.35;100.00;97912.20;1709933;81;21219;-58
2020/12/30 12:25:47;;;;;;;24.90;16.07;;;;;;;5.39;100.00;97904.27;1716739;82;21310;-60
2020/12/30 12:28:39;;;;;;;27.75;16.30;;;;;;;5.38;100.00;97905.75;1709064;84;21322;-60
2020/12/30 12:31:17;;;;;;;25.48;15.10;;;;;;;5.39;100.00;97904.27;1708836;83;21172;-57
2020/12/30 12:33:46;;;;;;;23.60;14.60;;;;;;;5.37;100.00;97904.95;1708071;84;21209;-58
2020/12/30 12:36:16;;;;;;;24.60;14.13;;;;;;;5.37;100.00;97899.72;1713355;82;21156;-54
2020/12/30 12:38:45;;;;;;;27.50;16.27;;;;;;;5.37;100.00;97898.92;1717226;82;21175;-57
2020/12/30 12:41:16;;;;;;;26.70;17.12;;;;;;;5.36;100.00;97896.81;1716544;82;21191;-58
2020/12/30 12:43:47;;;;;;;26.30;15.98;;;;;;;5.41;100.00;97896.22;1669158;84;21211;-58
2020/12/30 12:46:17;;;;;;;24.67;15.08;;;;;;;5.39;100.00;97886.45;1713465;82;21538;-57
2020/12/30 12:48:46;;;;;;;24.85;15.58;;;;;;;5.32;100.00;97891.16;1710991;82;21329;-58
2020/12/30 12:51:16;;;;;;;27.37;16.30;;;;;;;5.31;100.00;97887.45;1707214;82;21224;-55
2020/12/30 12:53:45;;;;;;;26.95;16.12;;;;;;;5.30;100.00;97886.64;1687665;83;21219;-55
2020/12/30 12:56:19;;;;;;;25.20;15.50;;;;;;;5.30;100.00;97891.06;1685217;83;21177;-56
2020/12/30 12:58:49;;;;;;;27.37;14.98;;;;;;;5.31;100.00;97888.25;1711268;82;21192;-58
2020/12/30 13:01:19;;;;;;;25.60;15.95;;;;;;;5.32;100.00;97887.75;1685088;83;21683;-59
2020/12/30 13:03:48;;;;;;;26.70;15.55;;;;;;;5.36;100.00;97892.09;1714724;81;21195;-57
2020/12/30 13:06:34;;;;;;;22.67;14.10;;;;;;;5.36;100.00;97895.50;1715195;82;21246;-57
2020/12/30 13:09:04;;;;;;;27.02;15.78;;;;;;;5.38;100.00;97896.60;1697951;82;21171;-56
2020/12/30 13:11:35;;;;;;;25.60;15.10;;;;;;;5.37;100.00;97892.39;1718846;82;21143;-63
2020/12/30 13:14:06;;;;;;;29.65;17.48;;;;;;;5.36;100.00;97897.31;1712649;82;21160;-64
2020/12/30 13:16:35;;;;;;;32.95;18.67;;;;;;;5.30;100.00;97898.91;1715070;82;21186;-61
2020/12/30 13:19:05;;;;;;;28.67;16.77;;;;;;;5.27;100.00;97892.25;1724188;82;21695;-57
2020/12/30 13:21:35;;;;;;;;;;;;;;;5.24;100.00;97897.08;1716962;82;22147;-57
2020/12/30 13:24:04;;;;;;;25.00;15.20;;;;;;;5.22;100.00;97900.41;1734494;82;20174;-62
2020/12/30 13:26:34;;;;;;;29.52;15.48;;;;;;;5.20;100.00;97880.18;1724228;82;21213;-65
2020/12/30 13:29:03;;;;;;;25.75;14.58;;;;;;;5.22;100.00;97882.92;1677105;84;21226;-62
2020/12/30 13:31:34;;;;;;;;;;;;;;;5.26;100.00;97880.19;1720188;82;22155;-66
2020/12/30 13:34:05;;;;;;;29.50;15.90;;;;;;;5.27;100.00;97871.84;1701845;83;20185;-60
2020/12/30 13:36:34;;;;;;;25.17;15.18;;;;;;;5.26;100.00;97874.97;1708573;84;21318;-58
2020/12/30 13:39:04;;;;;;;25.97;14.90;;;;;;;5.25;100.00;97874.67;1682925;84;21164;-56
2020/12/30 13:41:38;;;;;;;30.20;16.45;;;;;;;5.29;100.00;97877.70;1697979;84;21349;-57
2020/12/30 13:44:07;;;;;;;23.80;14.95;;;;;;;5.32;100.00;97871.56;1675131;85;21349;-58
2020/12/30 13:46:39;;;;;;;27.22;15.38;;;;;;;5.35;100.00;97873.50;1699503;83;21192;-55
2020/12/30 13:49:09;;;;;;;29.15;16.02;;;;;;;5.40;100.00;97862.75;1697793;84;21345;-56
2020/12/30 13:51:39;;;;;;;28.52;16.10;;;;;;;5.44;100.00;97863.14;1697287;84;21650;-62
2020/12/30 13:54:08;;;;;;;29.98;17.65;;;;;;;5.41;100.00;97863.55;1682143;85;21179;-55
2020/12/30 13:56:39;;;;;;;27.32;16.62;;;;;;;5.37;100.00;97855.30;1682993;85;21752;-66
2020/12/30 13:59:09;;;;;;;25.75;15.40;;;;;;;5.36;100.00;97865.95;1697932;84;21183;-54
2020/12/30 14:01:38;;;;;;;26.45;15.25;;;;;;;5.35;100.00;97869.07;1682914;85;21625;-56
2020/12/30 14:04:08;;;;;;;25.08;16.02;;;;;;;5.38;100.00;97867.86;1698137;84;21220;-57
2020/12/30 14:06:37;;;;;;;24.75;16.17;;;;;;;5.42;100.00;97876.41;1703282;84;22179;-57
2020/12/30 14:09:07;;;;;;;26.87;17.05;;;;;;;5.47;100.00;97875.83;1702227;84;21310;-61
2020/12/30 14:11:38;;;;;;;;;;;;;;;5.52;100.00;97878.66;1681661;85;21307;-63
2020/12/30 14:14:07;;;;;;;26.27;16.35;;;;;;;5.54;100.00;97889.20;1650283;87;20228;-49
2020/12/30 14:16:36;;;;;;;25.97;17.30;;;;;;;5.55;100.00;97882.16;1651806;85;21188;-49
2020/12/30 14:19:05;;;;;;;30.75;18.75;;;;;;;5.55;100.00;97877.73;1660233;85;21734;-49
2020/12/30 14:21:35;;;;;;;25.05;16.80;;;;;;;5.57;100.00;97876.25;1678960;85;21626;-48
2020/12/30 14:24:04;;;;;;;26.30;16.95;;;;;;;5.60;100.00;97870.10;1679431;85;21635;-57
2020/12/30 14:26:34;;;;;;;30.30;18.48;;;;;;;5.62;100.00;97862.08;1679434;85;21216;-57
2020/12/30 14:29:04;;;;;;;28.10;16.97;;;;;;;5.62;100.00;97854.71;1679625;85;21196;-56
